createdAt,value
2023-07-24T00:00:48.950Z,19.03
2023-07-24T00:03:15.640Z,19.03
2023-07-24T00:05:42.191Z,19.02
2023-07-24T00:08:08.721Z,19.03
2023-07-24T00:10:35.221Z,19.05
2023-07-24T00:13:02.429Z,19.03
2023-07-24T00:15:29.003Z,19.04
2023-07-24T00:17:55.598Z,19.05
2023-07-24T00:20:22.166Z,19.04
2023-07-24T00:22:48.712Z,19.01
2023-07-24T00:25:15.123Z,18.96
2023-07-24T00:27:41.575Z,18.95
2023-07-24T00:30:08.659Z,18.90
2023-07-24T00:32:35.250Z,18.82
2023-07-24T00:35:02.343Z,18.80
2023-07-24T00:37:29.683Z,18.81
2023-07-24T00:39:56.171Z,18.78
2023-07-24T00:42:23.969Z,18.82
2023-07-24T00:44:50.434Z,18.76
2023-07-24T00:47:18.254Z,18.76
2023-07-24T00:49:47.550Z,18.78
2023-07-24T00:52:14.588Z,18.80
2023-07-24T00:54:41.297Z,18.83
2023-07-24T00:57:08.217Z,18.84
2023-07-24T00:59:36.888Z,18.85
2023-07-24T01:02:03.783Z,18.84
2023-07-24T01:04:30.360Z,18.86
2023-07-24T01:06:58.128Z,18.84
2023-07-24T01:09:24.658Z,18.82
2023-07-24T01:12:06.900Z,18.76
2023-07-24T01:14:48.334Z,18.74
2023-07-24T01:17:24.742Z,18.69
2023-07-24T01:19:57.026Z,18.69
2023-07-24T01:22:41.204Z,18.65
2023-07-24T01:25:37.821Z,18.63
2023-07-24T01:28:08.817Z,18.58
2023-07-24T01:30:35.676Z,18.59
2023-07-24T01:33:03.386Z,18.61
2023-07-24T01:35:31.548Z,18.57
2023-07-24T01:37:59.508Z,18.56
2023-07-24T01:40:26.065Z,18.57
2023-07-24T01:42:53.067Z,18.53
2023-07-24T01:45:19.652Z,18.52
2023-07-24T01:47:46.213Z,18.49
2023-07-24T01:50:12.779Z,18.45
2023-07-24T01:52:39.525Z,18.45
2023-07-24T01:55:06.404Z,18.47
2023-07-24T01:57:32.845Z,18.48
2023-07-24T01:59:59.285Z,18.47
2023-07-24T02:02:25.865Z,18.45
2023-07-24T02:04:52.304Z,18.47
2023-07-24T02:07:18.724Z,18.48
2023-07-24T02:09:45.911Z,18.50
2023-07-24T02:12:12.550Z,18.51
2023-07-24T02:14:39.138Z,18.50
2023-07-24T02:17:05.632Z,18.49
2023-07-24T02:19:32.137Z,18.47
2023-07-24T02:21:58.636Z,18.45
2023-07-24T02:24:25.498Z,18.47
2023-07-24T02:26:52.081Z,18.46
2023-07-24T02:29:18.584Z,18.48
2023-07-24T02:31:45.068Z,18.47
2023-07-24T02:34:11.559Z,18.49
2023-07-24T02:36:42.402Z,18.49
2023-07-24T02:39:09.451Z,18.51
2023-07-24T02:41:35.962Z,18.51
2023-07-24T02:44:04.442Z,18.50
2023-07-24T02:46:32.183Z,18.50
2023-07-24T02:48:58.960Z,18.48
2023-07-24T02:51:25.601Z,18.48
2023-07-24T02:53:53.324Z,18.47
2023-07-24T02:56:19.976Z,18.46
2023-07-24T02:58:46.447Z,18.48
2023-07-24T03:01:15.055Z,18.52
2023-07-24T03:03:42.594Z,18.51
2023-07-24T03:06:09.607Z,18.52
2023-07-24T03:08:36.089Z,18.50
2023-07-24T03:11:05.856Z,18.51
2023-07-24T03:13:32.414Z,18.52
2023-07-24T03:15:59.278Z,18.51
2023-07-24T03:18:26.537Z,18.47
2023-07-24T03:20:53.732Z,18.44
2023-07-24T03:23:21.248Z,18.43
2023-07-24T03:25:47.883Z,18.43
2023-07-24T03:28:14.375Z,18.42
2023-07-24T03:30:40.824Z,18.42
2023-07-24T03:33:08.416Z,18.43
2023-07-24T03:35:35.033Z,18.42
2023-07-24T03:38:01.559Z,18.40
2023-07-24T03:40:28.459Z,18.40
2023-07-24T03:42:54.949Z,18.37
2023-07-24T03:45:22.386Z,18.38
2023-07-24T03:47:48.887Z,18.38
2023-07-24T03:50:15.918Z,18.38
2023-07-24T03:52:42.395Z,18.40
2023-07-24T03:55:09.405Z,18.38
2023-07-24T03:57:36.040Z,18.35
2023-07-24T04:00:03.937Z,18.31
2023-07-24T04:02:40.875Z,18.30
2023-07-24T04:05:07.856Z,18.28
2023-07-24T04:07:34.397Z,18.29
2023-07-24T04:10:00.923Z,18.34
2023-07-24T04:12:27.437Z,18.35
2023-07-24T04:14:53.968Z,18.38
2023-07-24T04:17:21.805Z,18.37
2023-07-24T04:19:48.412Z,18.36
2023-07-24T04:22:14.887Z,18.34
2023-07-24T04:24:41.348Z,18.31
2023-07-24T04:27:07.793Z,18.29
2023-07-24T04:29:34.282Z,18.29
2023-07-24T04:32:00.860Z,18.32
2023-07-24T04:34:27.357Z,18.33
2023-07-24T04:36:53.809Z,18.33
2023-07-24T04:39:20.338Z,18.33
2023-07-24T04:41:46.881Z,18.29
2023-07-24T04:44:13.339Z,18.29
2023-07-24T04:46:39.931Z,18.27
2023-07-24T04:49:06.492Z,18.26
2023-07-24T04:51:36.160Z,18.25
2023-07-24T04:54:03.161Z,18.24
2023-07-24T04:56:29.916Z,18.23
2023-07-24T04:58:56.700Z,18.25
2023-07-24T05:01:23.238Z,18.26
2023-07-24T05:03:49.801Z,18.23
2023-07-24T05:06:16.246Z,18.22
2023-07-24T05:08:43.723Z,18.20
2023-07-24T05:11:10.251Z,18.21
2023-07-24T05:13:36.660Z,18.22
2023-07-24T05:16:03.133Z,18.24
2023-07-24T05:18:29.727Z,18.26
2023-07-24T05:20:56.225Z,18.30
2023-07-24T05:23:22.718Z,18.32
2023-07-24T05:25:58.040Z,18.33
2023-07-24T05:28:24.504Z,18.33
2023-07-24T05:30:51.044Z,18.29
2023-07-24T05:33:17.892Z,18.19
2023-07-24T05:35:44.425Z,18.20
2023-07-24T05:38:10.977Z,18.23
2023-07-24T05:40:37.397Z,18.22
2023-07-24T05:43:04.971Z,18.24
2023-07-24T05:45:31.467Z,18.25
2023-07-24T05:47:59.071Z,18.26
2023-07-24T05:50:25.512Z,18.31
2023-07-24T05:52:51.948Z,18.30
2023-07-24T05:55:18.533Z,18.32
2023-07-24T05:57:45.843Z,18.36
2023-07-24T06:00:12.505Z,18.37
2023-07-24T06:02:38.943Z,18.36
2023-07-24T06:05:05.860Z,18.35
2023-07-24T06:07:32.396Z,18.34
2023-07-24T06:09:58.801Z,18.36
2023-07-24T06:12:25.341Z,18.37
2023-07-24T06:14:52.113Z,18.43
2023-07-24T06:17:18.518Z,18.53
2023-07-24T06:19:45.115Z,18.53
2023-07-24T06:22:11.594Z,18.56
2023-07-24T06:24:38.964Z,18.61
2023-07-24T06:27:07.588Z,18.68
2023-07-24T06:29:34.673Z,18.72
2023-07-24T06:32:01.398Z,18.72
2023-07-24T06:34:27.893Z,18.78
2023-07-24T06:36:54.364Z,18.84
2023-07-24T06:39:21.476Z,18.84
2023-07-24T06:41:47.945Z,18.85
2023-07-24T06:44:14.679Z,18.89
2023-07-24T06:46:41.144Z,18.97
2023-07-24T06:49:07.703Z,18.98
2023-07-24T06:51:34.188Z,19.01
2023-07-24T06:54:00.661Z,18.98
2023-07-24T06:56:27.164Z,18.98
2023-07-24T06:58:54.431Z,18.98
2023-07-24T07:01:20.918Z,19.00
2023-07-24T07:03:47.551Z,18.96
2023-07-24T07:08:43.602Z,18.99
2023-07-24T07:11:10.240Z,19.01
2023-07-24T07:13:36.764Z,18.95
2023-07-24T07:16:03.380Z,18.93
2023-07-24T07:18:29.863Z,18.93
2023-07-24T07:20:56.674Z,18.96
2023-07-24T07:23:23.506Z,19.00
2023-07-24T07:25:52.299Z,19.02
2023-07-24T07:28:19.990Z,19.05
2023-07-24T07:30:46.779Z,19.05
2023-07-24T07:33:14.630Z,19.08
2023-07-24T07:35:41.098Z,19.15
2023-07-24T07:38:07.618Z,19.24
2023-07-24T07:40:34.234Z,19.13
2023-07-24T07:43:00.682Z,19.18
2023-07-24T07:45:27.147Z,19.14
2023-07-24T07:47:54.612Z,19.11
2023-07-24T07:50:21.333Z,19.10
2023-07-24T07:52:52.058Z,19.14
2023-07-24T07:55:20.156Z,19.18
2023-07-24T07:57:46.601Z,19.25
2023-07-24T08:00:13.478Z,19.30
2023-07-24T08:02:42.671Z,19.42
2023-07-24T08:05:15.143Z,19.51
2023-07-24T08:07:44.593Z,19.55
2023-07-24T08:10:11.115Z,19.58
2023-07-24T08:12:37.607Z,19.56
2023-07-24T08:15:04.529Z,19.51
2023-07-24T08:17:31.244Z,19.46
2023-07-24T08:19:57.889Z,19.42
2023-07-24T08:22:25.038Z,19.40
2023-07-24T08:24:53.401Z,19.34
2023-07-24T08:27:21.669Z,19.32
2023-07-24T08:29:52.344Z,19.36
2023-07-24T08:32:18.820Z,19.48
2023-07-24T08:34:45.339Z,19.51
2023-07-24T08:37:12.794Z,19.60
2023-07-24T08:39:39.839Z,19.64
2023-07-24T08:42:13.361Z,19.75
2023-07-24T08:44:40.740Z,19.74
2023-07-24T08:47:11.165Z,19.62
2023-07-24T08:49:39.377Z,19.54
2023-07-24T08:52:06.738Z,19.53
2023-07-24T08:54:33.808Z,19.54
2023-07-24T08:57:00.994Z,19.54
2023-07-24T08:59:27.957Z,19.54
2023-07-24T09:01:54.590Z,19.60
2023-07-24T09:04:21.057Z,19.52
2023-07-24T09:06:47.947Z,19.57
2023-07-24T09:09:15.823Z,19.62
2023-07-24T09:11:54.846Z,19.59
2023-07-24T09:14:33.346Z,19.58
2023-07-24T09:17:04.562Z,19.59
2023-07-24T09:19:32.153Z,19.65
2023-07-24T09:22:14.037Z,19.65
2023-07-24T09:24:52.143Z,19.79
2023-07-24T09:27:19.340Z,19.92
2023-07-24T09:29:47.411Z,20.14
2023-07-24T09:32:25.724Z,20.29
2023-07-24T09:34:52.931Z,20.39
2023-07-24T09:37:30.387Z,20.37
2023-07-24T09:39:57.024Z,20.45
2023-07-24T09:42:31.922Z,20.50
2023-07-24T09:44:58.470Z,20.61
2023-07-24T09:47:51.037Z,20.67
2023-07-24T09:50:11.847Z,20.73
2023-07-24T09:52:43.068Z,20.76
2023-07-24T09:55:16.447Z,20.76
2023-07-24T09:57:45.056Z,20.79
2023-07-24T10:00:13.347Z,20.77
2023-07-24T10:02:41.021Z,20.74
2023-07-24T10:05:08.237Z,20.69
2023-07-24T10:07:34.920Z,20.74
2023-07-24T10:10:02.914Z,20.74
2023-07-24T10:12:31.584Z,20.65
2023-07-24T10:14:58.582Z,20.60
2023-07-24T10:17:38.850Z,20.71
2023-07-24T10:20:13.212Z,20.85
2023-07-24T10:22:44.498Z,20.93
2023-07-24T10:25:12.865Z,21.02
2023-07-24T10:27:47.452Z,21.08
2023-07-24T10:30:32.254Z,21.07
2023-07-24T10:33:12.620Z,21.20
2023-07-24T10:35:44.705Z,21.27
2023-07-24T10:38:12.398Z,21.24
2023-07-24T10:40:40.989Z,21.22
2023-07-24T10:43:19.107Z,21.16
2023-07-24T10:45:54.212Z,21.12
2023-07-24T10:48:27.420Z,21.05
2023-07-24T10:50:55.162Z,21.04
2023-07-24T10:53:24.813Z,21.10
2023-07-24T10:55:52.603Z,21.15
2023-07-24T10:58:19.294Z,21.23
2023-07-24T11:00:48.384Z,21.28
2023-07-24T11:03:16.172Z,21.23
2023-07-24T11:05:43.827Z,21.16
2023-07-24T11:08:16.589Z,21.11
2023-07-24T11:10:49.289Z,21.10
2023-07-24T11:13:21.666Z,21.05
2023-07-24T11:15:49.762Z,20.99
2023-07-24T11:18:17.253Z,20.93
2023-07-24T11:20:46.935Z,20.92
2023-07-24T11:23:14.079Z,20.96
2023-07-24T11:25:41.816Z,21.02
2023-07-24T11:28:09.660Z,21.03
2023-07-24T11:30:36.332Z,21.05
2023-07-24T11:33:06.632Z,21.08
2023-07-24T11:35:33.922Z,21.05
2023-07-24T11:38:00.551Z,21.02
2023-07-24T11:40:36.050Z,20.91
2023-07-24T11:43:05.910Z,20.88
2023-07-24T11:45:42.001Z,20.85
2023-07-24T11:48:12.687Z,20.83
2023-07-24T11:50:47.524Z,20.84
2023-07-24T11:53:40.351Z,20.86
2023-07-24T11:56:15.396Z,20.84
2023-07-24T11:58:41.904Z,20.81
2023-07-24T12:01:08.357Z,20.80
2023-07-24T12:03:35.935Z,20.85
2023-07-24T12:06:03.222Z,21.00
2023-07-24T12:08:36.773Z,21.12
2023-07-24T12:11:03.774Z,21.20
2023-07-24T12:13:30.327Z,21.24
2023-07-24T12:15:56.990Z,21.18
2023-07-24T12:18:23.494Z,21.17
2023-07-24T12:20:49.972Z,21.15
2023-07-24T12:23:17.294Z,21.10
2023-07-24T12:25:43.936Z,21.07
2023-07-24T12:28:10.492Z,21.07
2023-07-24T12:30:36.891Z,21.12
2023-07-24T12:33:03.626Z,21.17
2023-07-24T12:35:30.232Z,21.16
2023-07-24T12:37:56.739Z,21.09
2023-07-24T12:40:23.560Z,21.12
2023-07-24T12:42:50.298Z,21.11
2023-07-24T12:45:16.732Z,21.16
2023-07-24T12:47:44.195Z,21.16
2023-07-24T12:50:10.728Z,21.18
2023-07-24T12:52:37.281Z,21.16
2023-07-24T12:55:04.701Z,21.23
2023-07-24T12:57:31.174Z,21.29
2023-07-24T12:59:57.637Z,21.28
2023-07-24T13:02:24.198Z,21.24
2023-07-24T13:04:50.978Z,21.27
2023-07-24T13:07:17.644Z,21.21
2023-07-24T13:09:44.152Z,21.17
2023-07-24T13:12:11.427Z,21.15
2023-07-24T13:14:40.281Z,21.16
2023-07-24T13:17:10.096Z,21.20
2023-07-24T13:19:36.648Z,21.12
2023-07-24T13:22:03.180Z,21.08
2023-07-24T13:24:29.723Z,21.07
2023-07-24T13:26:56.192Z,21.07
2023-07-24T13:29:25.308Z,21.08
2023-07-24T13:31:53.353Z,21.05
2023-07-24T13:34:20.868Z,21.03
2023-07-24T13:36:50.782Z,20.99
2023-07-24T13:39:18.126Z,20.89
2023-07-24T13:41:44.642Z,20.85
2023-07-24T13:44:11.293Z,20.86
2023-07-24T13:46:40.420Z,20.89
2023-07-24T13:49:07.508Z,20.87
2023-07-24T13:51:34.008Z,20.86
2023-07-24T13:54:02.518Z,20.89
2023-07-24T13:56:30.746Z,20.88
2023-07-24T13:58:57.302Z,20.91
2023-07-24T14:01:23.806Z,20.86
2023-07-24T14:03:51.453Z,20.83
2023-07-24T14:06:18.359Z,20.80
2023-07-24T14:08:44.792Z,20.79
2023-07-24T14:11:11.311Z,20.70
2023-07-24T14:13:37.789Z,20.55
2023-07-24T14:16:04.519Z,20.48
2023-07-24T14:18:31.044Z,20.48
2023-07-24T14:20:57.689Z,20.49
2023-07-24T14:23:24.241Z,20.53
2023-07-24T14:25:53.214Z,20.49
2023-07-24T14:28:19.701Z,20.46
2023-07-24T14:30:46.183Z,20.40
2023-07-24T14:33:12.680Z,20.29
2023-07-24T14:35:39.205Z,20.24
2023-07-24T14:38:05.799Z,20.14
2023-07-24T14:40:32.305Z,20.07
2023-07-24T14:42:58.723Z,19.92
2023-07-24T14:45:25.956Z,19.73
2023-07-24T14:47:52.545Z,19.71
2023-07-24T14:50:18.971Z,19.66
2023-07-24T14:52:45.454Z,19.49
2023-07-24T14:55:11.979Z,19.43
2023-07-24T14:57:38.466Z,19.43
2023-07-24T15:00:05.562Z,19.39
2023-07-24T15:02:33.865Z,19.40
2023-07-24T15:05:00.416Z,19.42
2023-07-24T15:07:26.932Z,19.39
2023-07-24T15:09:53.400Z,19.36
2023-07-24T15:12:19.956Z,19.24
2023-07-24T15:14:46.559Z,19.25
2023-07-24T15:17:15.588Z,19.22
2023-07-24T15:19:42.087Z,19.14
2023-07-24T15:22:08.581Z,19.07
2023-07-24T15:24:35.074Z,19.05
2023-07-24T15:27:08.834Z,19.07
2023-07-24T15:29:37.167Z,19.05
2023-07-24T15:32:04.066Z,18.92
2023-07-24T15:34:30.711Z,18.90
2023-07-24T15:36:57.230Z,18.90
2023-07-24T15:39:23.865Z,19.00
2023-07-24T15:41:50.501Z,19.07
2023-07-24T15:44:17.034Z,19.04
2023-07-24T15:46:44.787Z,19.01
2023-07-24T15:49:11.452Z,19.01
2023-07-24T15:51:40.900Z,19.01
2023-07-24T15:54:09.221Z,18.95
2023-07-24T15:56:35.718Z,18.93
2023-07-24T15:59:02.199Z,18.93
2023-07-24T16:01:29.331Z,18.99
2023-07-24T16:03:56.331Z,18.99
2023-07-24T16:06:22.856Z,18.98
2023-07-24T16:08:49.354Z,18.94
2023-07-24T16:11:15.847Z,18.92
2023-07-24T16:13:44.041Z,18.96
2023-07-24T16:16:10.863Z,19.00
2023-07-24T16:18:37.583Z,19.01
2023-07-24T16:21:04.127Z,19.05
2023-07-24T16:23:30.625Z,19.04
2023-07-24T16:25:57.103Z,18.98
2023-07-24T16:28:23.873Z,19.03
2023-07-24T16:30:50.417Z,19.10
2023-07-24T16:33:23.745Z,19.12
2023-07-24T16:35:51.216Z,19.12
2023-07-24T16:38:17.745Z,19.10
2023-07-24T16:40:45.518Z,19.09
2023-07-24T16:43:12.107Z,19.00
2023-07-24T16:45:38.576Z,19.01
2023-07-24T16:48:05.367Z,19.11
2023-07-24T16:50:33.075Z,19.10
2023-07-24T16:52:59.705Z,19.13
2023-07-24T16:55:27.888Z,19.08
2023-07-24T16:57:56.349Z,19.08
2023-07-24T17:00:22.870Z,19.08
2023-07-24T17:02:49.423Z,19.12
2023-07-24T17:05:16.187Z,19.16
2023-07-24T17:07:42.682Z,19.15
2023-07-24T17:10:10.402Z,19.03
2023-07-24T17:12:37.024Z,18.99
2023-07-24T17:15:03.800Z,19.00
2023-07-24T17:17:30.388Z,19.02
2023-07-24T17:19:56.833Z,18.97
2023-07-24T17:22:23.336Z,18.96
2023-07-24T17:24:49.791Z,19.00
2023-07-24T17:27:16.447Z,18.92
2023-07-24T17:29:42.991Z,18.83
2023-07-24T17:32:09.429Z,18.75
2023-07-24T17:34:35.916Z,18.68
2023-07-24T17:37:02.377Z,18.64
2023-07-24T17:39:29.509Z,18.68
2023-07-24T17:41:55.994Z,18.76
2023-07-24T17:44:22.447Z,18.75
2023-07-24T17:46:48.972Z,18.76
2023-07-24T17:49:15.500Z,18.70
2023-07-24T17:51:42.049Z,18.71
2023-07-24T17:54:08.502Z,18.73
2023-07-24T17:56:34.991Z,18.64
2023-07-24T17:59:01.477Z,18.65
2023-07-24T18:01:28.082Z,18.66
2023-07-24T18:03:54.635Z,18.69
2023-07-24T18:06:21.291Z,18.77
2023-07-24T18:08:47.806Z,18.72
2023-07-24T18:11:14.318Z,18.63
2023-07-24T18:13:40.810Z,18.65
2023-07-24T18:16:07.306Z,18.58
2023-07-24T18:18:33.880Z,18.53
2023-07-24T18:21:08.354Z,18.54
2023-07-24T18:23:36.068Z,18.57
2023-07-24T18:26:02.806Z,18.50
2023-07-24T18:28:29.390Z,18.44
2023-07-24T18:30:55.829Z,18.43
2023-07-24T18:33:22.332Z,18.49
2023-07-24T18:35:49.555Z,18.58
2023-07-24T18:38:16.732Z,18.63
2023-07-24T18:40:43.188Z,18.68
2023-07-24T18:43:09.704Z,18.67
2023-07-24T18:45:36.156Z,18.72
2023-07-24T18:48:03.058Z,18.75
2023-07-24T18:50:29.908Z,18.75
2023-07-24T18:52:56.572Z,18.69
2023-07-24T18:55:23.158Z,18.67
2023-07-24T18:57:49.762Z,18.66
2023-07-24T19:00:18.073Z,18.64
2023-07-24T19:02:45.144Z,18.64
2023-07-24T19:05:11.878Z,18.61
2023-07-24T19:07:38.399Z,18.58
2023-07-24T19:10:10.113Z,18.58
2023-07-24T19:12:38.501Z,18.48
2023-07-24T19:15:06.470Z,18.43
2023-07-24T19:17:33.028Z,18.39
2023-07-24T19:19:59.481Z,18.27
2023-07-24T19:22:26.020Z,18.29
2023-07-24T19:24:54.952Z,18.31
2023-07-24T19:27:22.886Z,18.32
2023-07-24T19:29:49.413Z,18.28
2023-07-24T19:32:15.871Z,18.23
2023-07-24T19:34:44.808Z,18.25
2023-07-24T19:37:11.739Z,18.27
2023-07-24T19:39:41.103Z,18.20
2023-07-24T19:42:10.330Z,18.14
2023-07-24T19:44:37.888Z,18.12
2023-07-24T19:47:05.078Z,18.15
2023-07-24T19:49:34.196Z,18.18
2023-07-24T19:52:01.657Z,18.19
2023-07-24T19:54:29.986Z,18.21
2023-07-24T19:56:57.124Z,18.20
2023-07-24T19:59:24.160Z,18.22
2023-07-24T20:01:50.640Z,18.20
2023-07-24T20:04:17.240Z,18.13
2023-07-24T20:06:43.733Z,18.05
2023-07-24T20:09:10.314Z,18.02
2023-07-24T20:11:37.147Z,18.05
2023-07-24T20:14:03.659Z,18.04
2023-07-24T20:16:30.194Z,18.03
2023-07-24T20:18:56.650Z,18.01
2023-07-24T20:21:23.264Z,17.96
2023-07-24T20:23:49.808Z,17.98
2023-07-24T20:26:19.079Z,17.98
2023-07-24T20:28:46.932Z,17.97
2023-07-24T20:31:13.761Z,17.96
2023-07-24T20:33:40.245Z,17.97
2023-07-24T20:36:07.832Z,17.99
2023-07-24T20:38:34.846Z,17.99
2023-07-24T20:41:01.980Z,18.01
2023-07-24T20:43:29.105Z,18.01
2023-07-24T20:45:55.622Z,18.00
2023-07-24T20:48:22.898Z,18.01
2023-07-24T20:50:49.774Z,17.98
2023-07-24T20:53:16.228Z,17.97
2023-07-24T20:55:42.702Z,17.94
2023-07-24T20:58:11.061Z,17.93
2023-07-24T21:00:37.488Z,17.92
2023-07-24T21:03:04.274Z,17.92
2023-07-24T21:05:30.818Z,17.91
2023-07-24T21:07:59.753Z,17.90
2023-07-24T21:10:26.365Z,17.90
2023-07-24T21:12:52.847Z,17.87
2023-07-24T21:15:19.280Z,17.86
2023-07-24T21:17:45.883Z,17.85
2023-07-24T21:20:12.860Z,17.83
2023-07-24T21:22:39.338Z,17.81
2023-07-24T21:25:06.197Z,17.79
2023-07-24T21:27:32.692Z,17.76
2023-07-24T21:29:59.152Z,17.72
2023-07-24T21:32:25.719Z,17.71
2023-07-24T21:34:52.250Z,17.67
2023-07-24T21:37:18.717Z,17.65
2023-07-24T21:39:45.196Z,17.62
2023-07-24T21:42:11.749Z,17.61
2023-07-24T21:44:38.300Z,17.59
2023-07-24T21:47:05.499Z,17.56
2023-07-24T21:49:32.738Z,17.55
2023-07-24T21:52:01.190Z,17.52
2023-07-24T21:54:27.696Z,17.52
2023-07-24T21:56:54.357Z,17.51
2023-07-24T21:59:20.785Z,17.52
2023-07-24T22:01:47.213Z,17.52
2023-07-24T22:04:15.173Z,17.52
2023-07-24T22:06:41.667Z,17.50
2023-07-24T22:09:08.131Z,17.48
2023-07-24T22:11:36.762Z,17.45
2023-07-24T22:14:03.379Z,17.40
2023-07-24T22:16:29.911Z,17.39
2023-07-24T22:18:56.494Z,17.37
2023-07-24T22:21:22.911Z,17.34
2023-07-24T22:23:49.472Z,17.30
2023-07-24T22:26:15.872Z,17.29
2023-07-24T22:28:42.364Z,17.29
2023-07-24T22:31:10.246Z,17.28
2023-07-24T22:33:36.864Z,17.27
2023-07-24T22:36:03.755Z,17.27
2023-07-24T22:38:30.355Z,17.24
2023-07-24T22:40:56.796Z,17.24
2023-07-24T22:43:23.420Z,17.21
2023-07-24T22:45:50.028Z,17.21
2023-07-24T22:48:17.082Z,17.21
2023-07-24T22:50:43.645Z,17.22
2023-07-24T22:53:10.191Z,17.22
2023-07-24T22:55:36.683Z,17.22
2023-07-24T22:58:04.560Z,17.21
2023-07-24T23:00:31.101Z,17.22
2023-07-24T23:02:57.683Z,17.23
2023-07-24T23:05:24.224Z,17.21
2023-07-24T23:07:54.188Z,17.21
2023-07-24T23:10:20.781Z,17.20
2023-07-24T23:12:48.409Z,17.18
2023-07-24T23:15:15.239Z,17.17
2023-07-24T23:17:41.764Z,17.16
2023-07-24T23:20:08.885Z,17.14
2023-07-24T23:22:35.378Z,17.14
2023-07-24T23:25:01.840Z,17.12
2023-07-24T23:27:28.480Z,17.08
2023-07-24T23:29:55.076Z,17.07
2023-07-24T23:32:21.545Z,17.05
2023-07-24T23:34:48.034Z,17.03
2023-07-24T23:37:14.508Z,17.00
2023-07-24T23:39:40.999Z,17.01
2023-07-24T23:42:07.505Z,17.00
2023-07-24T23:44:33.987Z,16.99
2023-07-24T23:47:00.551Z,16.97
2023-07-24T23:49:27.011Z,16.95
2023-07-24T23:51:53.490Z,16.95
2023-07-24T23:54:19.950Z,16.93
2023-07-24T23:56:46.395Z,16.90
2023-07-24T23:59:12.960Z,16.86
